createdAt,value
2018-07-07T00:01:04.035Z,1023.9
2018-07-07T00:06:04.533Z,1023.9
2018-07-07T00:11:04.161Z,1023.9
2018-07-07T00:16:04.365Z,1023.9
2018-07-07T00:21:03.896Z,1023.9
2018-07-07T00:26:04.167Z,1023.9
2018-07-07T00:31:04.434Z,1023.9
2018-07-07T00:36:03.945Z,1024
2018-07-07T00:41:04.539Z,1023.9
2018-07-07T00:46:03.910Z,1023.9
2018-07-07T00:51:04.298Z,1024
2018-07-07T00:56:04.530Z,1024
2018-07-07T01:01:03.808Z,1024
2018-07-07T01:06:04.326Z,1023.9
2018-07-07T01:11:03.883Z,1024
2018-07-07T01:16:04.170Z,1024
2018-07-07T01:21:04.696Z,1024.1
2018-07-07T01:26:03.926Z,1024.1
2018-07-07T01:31:04.177Z,1024.1
2018-07-07T01:36:04.639Z,1024.1
2018-07-07T01:41:04.196Z,1024
2018-07-07T01:46:04.520Z,1024
2018-07-07T01:51:04.045Z,1024
2018-07-07T01:56:04.204Z,1024
2018-07-07T02:01:04.539Z,1024
2018-07-07T02:06:03.974Z,1024
2018-07-07T02:11:04.559Z,1024
2018-07-07T02:16:03.865Z,1024
2018-07-07T02:21:04.397Z,1024
2018-07-07T02:26:04.577Z,1024
2018-07-07T02:31:03.905Z,1024.1
2018-07-07T02:36:04.384Z,1024
2018-07-07T02:41:03.966Z,1024
2018-07-07T02:46:04.278Z,1024
2018-07-07T02:51:04.751Z,1024.1
2018-07-07T02:56:03.939Z,1024
2018-07-07T03:01:04.255Z,1024
2018-07-07T03:06:04.750Z,1024
2018-07-07T03:11:04.354Z,1024.1
2018-07-07T03:16:04.584Z,1024.1
2018-07-07T03:21:04.133Z,1024.2
2018-07-07T03:26:04.427Z,1024.2
2018-07-07T03:31:04.665Z,1024.2
2018-07-07T03:36:04.086Z,1024.2
2018-07-07T03:41:04.659Z,1024.3
2018-07-07T03:46:03.958Z,1024.4
2018-07-07T03:51:04.425Z,1024.4
2018-07-07T03:56:04.661Z,1024.4
2018-07-07T04:01:03.914Z,1024.4
2018-07-07T04:06:04.446Z,1024.5
2018-07-07T04:11:03.968Z,1024.7
2018-07-07T04:16:04.243Z,1024.7
2018-07-07T04:21:04.806Z,1024.7
2018-07-07T04:26:04.267Z,1024.7
2018-07-07T04:31:04.356Z,1024.7
2018-07-07T04:36:04.828Z,1024.8
2018-07-07T04:41:04.377Z,1024.8
2018-07-07T04:46:05.215Z,1024.7
2018-07-07T04:51:04.137Z,1024.7
2018-07-07T04:56:04.322Z,1024.8
2018-07-07T05:01:04.650Z,1024.8
2018-07-07T05:06:04.125Z,1024.9
2018-07-07T05:11:04.747Z,1024.9
2018-07-07T05:16:04.021Z,1024.9
2018-07-07T05:21:04.573Z,1025
2018-07-07T05:26:03.752Z,1025
2018-07-07T05:31:04.044Z,1025
2018-07-07T05:36:04.538Z,1025
2018-07-07T05:41:04.106Z,1025.1
2018-07-07T05:46:04.400Z,1025.1
2018-07-07T05:51:03.857Z,1025.1
2018-07-07T05:56:04.074Z,1025.1
2018-07-07T06:01:04.355Z,1025.2
2018-07-07T06:06:04.833Z,1025.2
2018-07-07T06:11:04.429Z,1025.2
2018-07-07T06:16:04.716Z,1025.2
2018-07-07T06:21:04.268Z,1025.2
2018-07-07T06:26:04.438Z,1025.3
2018-07-07T06:31:04.713Z,1025.2
2018-07-07T06:36:04.221Z,1025.2
2018-07-07T06:41:03.785Z,1025.2
2018-07-07T06:46:04.077Z,1025.1
2018-07-07T06:51:04.556Z,1025.2
2018-07-07T06:56:03.746Z,1025.1
2018-07-07T07:01:04.060Z,1025.1
2018-07-07T07:06:04.529Z,1025.1
2018-07-07T07:11:04.107Z,1025.1
2018-07-07T07:16:04.407Z,1025.1
2018-07-07T07:21:03.938Z,1025.1
2018-07-07T07:26:04.696Z,1025.3
2018-07-07T07:31:04.406Z,1025.3
2018-07-07T07:36:03.938Z,1025.3
2018-07-07T07:41:04.455Z,1025.3
2018-07-07T07:46:03.785Z,1025.3
2018-07-07T07:51:04.248Z,1025.3
2018-07-07T07:56:04.440Z,1025.3
2018-07-07T08:01:04.750Z,1025.3
2018-07-07T08:06:04.215Z,1025.3
2018-07-07T08:11:03.846Z,1025.3
2018-07-07T08:16:04.096Z,1025.3
2018-07-07T08:21:04.620Z,1025.3
2018-07-07T08:26:03.844Z,1025.2
2018-07-07T08:31:04.085Z,1025.3
2018-07-07T08:36:04.586Z,1025.3
2018-07-07T08:41:05.570Z,1025.2
2018-07-07T08:46:04.461Z,1025.3
2018-07-07T08:51:03.925Z,1025.2
2018-07-07T08:56:04.125Z,1025.2
2018-07-07T09:01:04.438Z,1025.2
2018-07-07T09:06:03.915Z,1025.2
2018-07-07T09:11:04.532Z,1025.2
2018-07-07T09:16:03.816Z,1025.2
2018-07-07T09:21:04.327Z,1025.1
2018-07-07T09:26:04.517Z,1025.1
2018-07-07T09:31:03.815Z,1025.1
2018-07-07T09:36:04.279Z,1025
2018-07-07T09:41:03.886Z,1025
2018-07-07T09:46:04.230Z,1025
2018-07-07T09:51:04.702Z,1025
2018-07-07T09:56:03.918Z,1025
2018-07-07T10:01:04.229Z,1024.9
2018-07-07T10:06:04.726Z,1024.9
2018-07-07T10:11:04.298Z,1025
2018-07-07T10:16:04.568Z,1024.8
2018-07-07T10:21:04.132Z,1024.8
2018-07-07T10:26:04.266Z,1024.8
2018-07-07T10:31:04.583Z,1024.9
2018-07-07T10:36:04.077Z,1024.9
2018-07-07T10:41:04.615Z,1024.7
2018-07-07T10:46:04.122Z,1024.8
2018-07-07T10:51:04.376Z,1024.8
2018-07-07T10:56:04.606Z,1024.8
2018-07-07T11:01:03.906Z,1024.8
2018-07-07T11:06:04.374Z,1024.8
2018-07-07T11:11:03.937Z,1024.8
2018-07-07T11:16:04.247Z,1024.8
2018-07-07T11:21:04.806Z,1024.8
2018-07-07T11:26:04.019Z,1024.8
2018-07-07T11:31:04.300Z,1024.5
2018-07-07T11:36:04.760Z,1024.5
2018-07-07T11:41:04.349Z,1024.5
2018-07-07T11:46:04.648Z,1024.5
2018-07-07T11:51:04.138Z,1024.5
2018-07-07T11:56:04.370Z,1024.4
2018-07-07T12:01:04.656Z,1024.4
2018-07-07T12:06:04.125Z,1024.4
2018-07-07T12:11:03.730Z,1024.4
2018-07-07T12:16:04.033Z,1024.4
2018-07-07T12:21:04.498Z,1024.4
2018-07-07T12:26:04.727Z,1024.4
2018-07-07T12:31:04.001Z,1024.4
2018-07-07T12:36:04.506Z,1024.4
2018-07-07T12:41:04.065Z,1024.1
2018-07-07T12:46:04.348Z,1024.1
2018-07-07T12:51:04.860Z,1024
2018-07-07T12:56:04.069Z,1024
2018-07-07T13:01:04.337Z,1024
2018-07-07T13:06:04.803Z,1024
2018-07-07T13:11:04.395Z,1024
2018-07-07T13:16:04.926Z,1024
2018-07-07T13:21:04.249Z,1024
2018-07-07T13:26:04.456Z,1024
2018-07-07T13:31:04.714Z,1023.8
2018-07-07T13:36:04.149Z,1023.8
2018-07-07T13:41:03.777Z,1023.8
2018-07-07T13:46:04.051Z,1023.8
2018-07-07T13:51:04.560Z,1023.9
2018-07-07T13:56:04.764Z,1023.8
2018-07-07T14:01:04.067Z,1023.8
2018-07-07T14:06:04.506Z,1023.8
2018-07-07T14:11:04.086Z,1023.8
2018-07-07T14:16:04.396Z,1023.8
2018-07-07T14:21:03.915Z,1023.8
2018-07-07T14:26:04.143Z,1023.7
2018-07-07T14:31:04.439Z,1023.7
2018-07-07T14:36:03.935Z,1023.7
2018-07-07T14:41:04.516Z,1023.7
2018-07-07T14:46:03.803Z,1023.7
2018-07-07T14:51:04.285Z,1023.7
2018-07-07T14:56:04.528Z,1023.8
2018-07-07T15:01:03.818Z,1023.8
2018-07-07T15:06:04.296Z,1023.8
2018-07-07T15:11:03.915Z,1023.8
2018-07-07T15:16:04.154Z,1023.6
2018-07-07T15:21:04.720Z,1023.7
2018-07-07T15:26:03.897Z,1023.7
2018-07-07T15:31:04.194Z,1023.7
2018-07-07T15:36:04.685Z,1023.7
2018-07-07T15:41:04.256Z,1023.7
2018-07-07T15:46:05.345Z,1023.7
2018-07-07T15:51:04.053Z,1023.7
2018-07-07T15:56:04.336Z,1023.7
2018-07-07T16:01:04.750Z,1023.7
2018-07-07T16:06:04.057Z,1023.4
2018-07-07T16:11:04.700Z,1023.4
2018-07-07T16:16:03.957Z,1023.4
2018-07-07T16:21:04.455Z,1023.2
2018-07-07T16:26:04.668Z,1023.2
2018-07-07T16:31:04.000Z,1023.2
2018-07-07T16:36:04.445Z,1023.2
2018-07-07T16:41:04.006Z,1023.2
2018-07-07T16:46:04.710Z,1023.2
2018-07-07T16:51:04.813Z,1023.2
2018-07-07T16:56:04.043Z,1023.2
2018-07-07T17:01:04.329Z,1023.2
2018-07-07T17:06:04.839Z,1023.2
2018-07-07T17:11:04.377Z,1023.2
2018-07-07T17:16:04.638Z,1023.2
2018-07-07T17:21:04.190Z,1023.1
2018-07-07T17:26:04.452Z,1023.1
2018-07-07T17:31:04.745Z,1023.1
2018-07-07T17:36:04.195Z,1023.1
2018-07-07T17:41:03.776Z,1023.1
2018-07-07T17:46:04.041Z,1023.1
2018-07-07T17:51:04.526Z,1023.1
2018-07-07T17:56:03.798Z,1023.1
2018-07-07T18:01:04.039Z,1023.2
2018-07-07T18:06:04.665Z,1023.3
2018-07-07T18:11:04.108Z,1023.3
2018-07-07T18:16:04.409Z,1023.3
2018-07-07T18:21:03.908Z,1023.3
2018-07-07T18:26:04.138Z,1023.3
2018-07-07T18:31:04.850Z,1023.3
2018-07-07T18:36:03.867Z,1023.4
2018-07-07T18:41:04.512Z,1023.4
2018-07-07T18:46:03.786Z,1023.4
2018-07-07T18:51:04.246Z,1023.4
2018-07-07T18:56:04.427Z,1023.4
2018-07-07T19:01:04.740Z,1023.4
2018-07-07T19:06:04.238Z,1023.4
2018-07-07T19:11:03.815Z,1023.4
2018-07-07T19:16:04.107Z,1023.4
2018-07-07T19:21:04.595Z,1023.4
2018-07-07T19:26:04.081Z,1023.6
2018-07-07T19:31:04.139Z,1023.6
2018-07-07T19:36:04.614Z,1023.7
2018-07-07T19:41:04.245Z,1023.7
2018-07-07T19:46:04.628Z,1023.7
2018-07-07T19:51:03.978Z,1023.8
2018-07-07T19:56:04.181Z,1023.8
2018-07-07T20:01:04.441Z,1023.9
2018-07-07T20:06:03.913Z,1023.9
2018-07-07T20:11:04.543Z,1024
2018-07-07T20:16:03.812Z,1024
2018-07-07T20:21:04.398Z,1024
2018-07-07T20:26:04.607Z,1024.1
2018-07-07T20:31:04.059Z,1024.1
2018-07-07T20:36:04.374Z,1024.1
2018-07-07T20:41:03.960Z,1024.2
2018-07-07T20:46:04.229Z,1024.2
2018-07-07T20:51:04.709Z,1024.3
2018-07-07T20:56:03.957Z,1024.3
2018-07-07T21:01:04.229Z,1024.4
2018-07-07T21:06:04.732Z,1024.4
2018-07-07T21:11:04.962Z,1024.5
2018-07-07T21:16:04.546Z,1024.5
2018-07-07T21:21:04.031Z,1024.5
2018-07-07T21:26:04.327Z,1024.5
2018-07-07T21:31:04.555Z,1024.5
2018-07-07T21:36:04.070Z,1024.6
2018-07-07T21:41:04.663Z,1024.6
2018-07-07T21:46:03.948Z,1024.6
2018-07-07T21:51:04.419Z,1024.6
2018-07-07T21:56:04.645Z,1024.7
2018-07-07T22:01:03.879Z,1024.7
2018-07-07T22:06:04.374Z,1024.8
2018-07-07T22:11:04.014Z,1024.8
2018-07-07T22:16:04.269Z,1024.8
2018-07-07T22:21:05.164Z,1024.8
2018-07-07T22:26:03.996Z,1024.9
2018-07-07T22:31:04.265Z,1024.9
2018-07-07T22:36:04.722Z,1024.9
2018-07-07T22:41:04.274Z,1024.9
2018-07-07T22:46:04.574Z,1025
2018-07-07T22:51:04.056Z,1025
2018-07-07T22:56:04.251Z,1025.1
2018-07-07T23:01:04.627Z,1025
2018-07-07T23:06:04.079Z,1025
2018-07-07T23:11:04.614Z,1025
2018-07-07T23:16:03.916Z,1025.2
2018-07-07T23:21:04.430Z,1025.2
2018-07-07T23:26:04.639Z,1025.3
2018-07-07T23:31:03.946Z,1025.2
2018-07-07T23:36:04.427Z,1025.2
2018-07-07T23:41:03.996Z,1025.1
2018-07-07T23:46:04.318Z,1025.1
2018-07-07T23:51:04.774Z,1025.1
2018-07-07T23:56:03.963Z,1025.1
